sensor_id;sensor_type;location;lat;lon;timestamp;P1;durP1;ratioP1;P2;durP2;ratioP2
24421;SDS011;12600;53.326;-6.298;2024-03-29T00:01:27;17.08;;;7.75;;
24421;SDS011;12600;53.326;-6.298;2024-03-29T00:04:14;11.35;;;6.18;;
24421;SDS011;12600;53.326;-6.298;2024-03-29T00:07:01;8.73;;;4.82;;
24421;SDS011;12600;53.326;-6.298;2024-03-29T00:09:49;10.73;;;6.03;;
24421;SDS011;12600;53.326;-6.298;2024-03-29T00:12:36;12.30;;;6.32;;
24421;SDS011;12600;53.326;-6.298;2024-03-29T00:15:25;10.32;;;5.93;;
24421;SDS011;12600;53.326;-6.298;2024-03-29T00:18:12;11.15;;;6.90;;
24421;SDS011;12600;53.326;-6.298;2024-03-29T00:21:00;10.63;;;6.70;;
24421;SDS011;12600;53.326;-6.298;2024-03-29T00:23:47;11.77;;;6.88;;
24421;SDS011;12600;53.326;-6.298;2024-03-29T00:26:35;12.90;;;6.55;;
24421;SDS011;12600;53.326;-6.298;2024-03-29T00:29:22;9.25;;;5.55;;
24421;SDS011;12600;53.326;-6.298;2024-03-29T00:32:11;12.98;;;4.50;;
24421;SDS011;12600;53.326;-6.298;2024-03-29T00:34:58;7.57;;;3.30;;
24421;SDS011;12600;53.326;-6.298;2024-03-29T00:37:45;6.90;;;3.03;;
24421;SDS011;12600;53.326;-6.298;2024-03-29T00:40:32;6.70;;;2.30;;
24421;SDS011;12600;53.326;-6.298;2024-03-29T00:43:22;4.20;;;2.38;;
24421;SDS011;12600;53.326;-6.298;2024-03-29T00:46:09;5.85;;;2.30;;
24421;SDS011;12600;53.326;-6.298;2024-03-29T00:48:58;5.82;;;2.50;;
24421;SDS011;12600;53.326;-6.298;2024-03-29T00:51:45;4.10;;;1.98;;
24421;SDS011;12600;53.326;-6.298;2024-03-29T00:54:33;5.88;;;2.60;;
24421;SDS011;12600;53.326;-6.298;2024-03-29T00:57:20;4.43;;;2.38;;
24421;SDS011;12600;53.326;-6.298;2024-03-29T01:00:08;7.15;;;2.50;;
24421;SDS011;12600;53.326;-6.298;2024-03-29T01:02:56;7.57;;;3.33;;
24421;SDS011;12600;53.326;-6.298;2024-03-29T01:05:45;5.03;;;2.60;;
24421;SDS011;12600;53.326;-6.298;2024-03-29T01:08:32;9.73;;;2.88;;
24421;SDS011;12600;53.326;-6.298;2024-03-29T01:11:20;9.27;;;2.58;;
24421;SDS011;12600;53.326;-6.298;2024-03-29T01:14:07;9.40;;;1.75;;
24421;SDS011;12600;53.326;-6.298;2024-03-29T01:16:55;7.72;;;3.58;;
24421;SDS011;12600;53.326;-6.298;2024-03-29T01:19:42;7.35;;;3.67;;
24421;SDS011;12600;53.326;-6.298;2024-03-29T01:22:31;7.65;;;2.50;;
24421;SDS011;12600;53.326;-6.298;2024-03-29T01:25:18;8.40;;;1.83;;
24421;SDS011;12600;53.326;-6.298;2024-03-29T01:28:05;4.75;;;1.50;;
24421;SDS011;12600;53.326;-6.298;2024-03-29T01:30:53;6.50;;;1.55;;
24421;SDS011;12600;53.326;-6.298;2024-03-29T01:33:41;6.18;;;1.10;;
24421;SDS011;12600;53.326;-6.298;2024-03-29T01:36:28;4.07;;;1.20;;
24421;SDS011;12600;53.326;-6.298;2024-03-29T01:39:17;3.78;;;1.20;;
24421;SDS011;12600;53.326;-6.298;2024-03-29T01:42:04;3.97;;;1.10;;
24421;SDS011;12600;53.326;-6.298;2024-03-29T01:44:52;3.03;;;1.45;;
24421;SDS011;12600;53.326;-6.298;2024-03-29T01:47:41;6.40;;;1.73;;
24421;SDS011;12600;53.326;-6.298;2024-03-29T01:50:29;8.73;;;1.38;;
24421;SDS011;12600;53.326;-6.298;2024-03-29T01:53:19;5.30;;;1.73;;
24421;SDS011;12600;53.326;-6.298;2024-03-29T01:56:09;4.70;;;1.40;;
24421;SDS011;12600;53.326;-6.298;2024-03-29T01:58:59;4.47;;;1.20;;
24421;SDS011;12600;53.326;-6.298;2024-03-29T02:01:47;3.38;;;1.40;;
24421;SDS011;12600;53.326;-6.298;2024-03-29T02:04:36;5.43;;;1.30;;
24421;SDS011;12600;53.326;-6.298;2024-03-29T02:07:24;5.93;;;1.25;;
24421;SDS011;12600;53.326;-6.298;2024-03-29T02:10:13;2.83;;;0.80;;
24421;SDS011;12600;53.326;-6.298;2024-03-29T02:13:04;5.70;;;0.80;;
24421;SDS011;12600;53.326;-6.298;2024-03-29T02:15:52;4.43;;;0.93;;
24421;SDS011;12600;53.326;-6.298;2024-03-29T02:18:41;3.65;;;0.80;;
24421;SDS011;12600;53.326;-6.298;2024-03-29T02:21:29;4.85;;;1.05;;
24421;SDS011;12600;53.326;-6.298;2024-03-29T02:24:19;4.00;;;0.93;;
24421;SDS011;12600;53.326;-6.298;2024-03-29T02:27:08;8.73;;;1.33;;
24421;SDS011;12600;53.326;-6.298;2024-03-29T02:29:56;6.13;;;1.00;;
24421;SDS011;12600;53.326;-6.298;2024-03-29T02:32:45;6.72;;;1.98;;
24421;SDS011;12600;53.326;-6.298;2024-03-29T02:35:34;5.38;;;1.20;;
24421;SDS011;12600;53.326;-6.298;2024-03-29T02:38:22;4.07;;;1.20;;
24421;SDS011;12600;53.326;-6.298;2024-03-29T02:41:12;6.00;;;0.98;;
24421;SDS011;12600;53.326;-6.298;2024-03-29T02:44:00;5.60;;;1.00;;
24421;SDS011;12600;53.326;-6.298;2024-03-29T02:46:48;8.60;;;1.30;;
24421;SDS011;12600;53.326;-6.298;2024-03-29T02:49:37;10.20;;;1.20;;
24421;SDS011;12600;53.326;-6.298;2024-03-29T02:52:24;5.03;;;1.00;;
24421;SDS011;12600;53.326;-6.298;2024-03-29T02:55:12;7.07;;;1.35;;
24421;SDS011;12600;53.326;-6.298;2024-03-29T02:58:01;7.90;;;1.50;;
24421;SDS011;12600;53.326;-6.298;2024-03-29T03:00:50;4.93;;;1.02;;
24421;SDS011;12600;53.326;-6.298;2024-03-29T03:03:38;7.78;;;1.25;;
24421;SDS011;12600;53.326;-6.298;2024-03-29T03:06:26;5.18;;;1.23;;
24421;SDS011;12600;53.326;-6.298;2024-03-29T03:09:13;7.03;;;1.30;;
24421;SDS011;12600;53.326;-6.298;2024-03-29T03:12:20;6.38;;;1.23;;
24421;SDS011;12600;53.326;-6.298;2024-03-29T03:15:10;8.73;;;1.30;;
24421;SDS011;12600;53.326;-6.298;2024-03-29T03:17:58;7.07;;;1.30;;
24421;SDS011;12600;53.326;-6.298;2024-03-29T03:20:50;7.95;;;1.60;;
24421;SDS011;12600;53.326;-6.298;2024-03-29T03:23:38;13.60;;;4.03;;
24421;SDS011;12600;53.326;-6.298;2024-03-29T03:26:26;6.68;;;2.80;;
24421;SDS011;12600;53.326;-6.298;2024-03-29T03:29:13;6.05;;;1.30;;
24421;SDS011;12600;53.326;-6.298;2024-03-29T03:32:04;10.15;;;1.20;;
24421;SDS011;12600;53.326;-6.298;2024-03-29T03:34:52;7.55;;;1.45;;
24421;SDS011;12600;53.326;-6.298;2024-03-29T03:37:40;10.07;;;1.65;;
24421;SDS011;12600;53.326;-6.298;2024-03-29T03:40:28;4.78;;;1.08;;
24421;SDS011;12600;53.326;-6.298;2024-03-29T03:43:16;9.18;;;1.20;;
24421;SDS011;12600;53.326;-6.298;2024-03-29T03:46:03;9.85;;;1.30;;
24421;SDS011;12600;53.326;-6.298;2024-03-29T03:48:53;5.55;;;1.23;;
24421;SDS011;12600;53.326;-6.298;2024-03-29T03:51:40;7.05;;;1.30;;
24421;SDS011;12600;53.326;-6.298;2024-03-29T03:54:29;12.23;;;1.20;;
24421;SDS011;12600;53.326;-6.298;2024-03-29T03:57:16;6.70;;;1.38;;
24421;SDS011;12600;53.326;-6.298;2024-03-29T04:00:05;6.57;;;1.38;;
24421;SDS011;12600;53.326;-6.298;2024-03-29T04:03:03;6.90;;;1.17;;
24421;SDS011;12600;53.326;-6.298;2024-03-29T04:05:53;9.73;;;1.35;;
24421;SDS011;12600;53.326;-6.298;2024-03-29T04:08:40;8.57;;;1.30;;
24421;SDS011;12600;53.326;-6.298;2024-03-29T04:11:31;9.48;;;1.73;;
24421;SDS011;12600;53.326;-6.298;2024-03-29T04:14:18;8.75;;;1.50;;
24421;SDS011;12600;53.326;-6.298;2024-03-29T04:17:07;6.82;;;1.30;;
24421;SDS011;12600;53.326;-6.298;2024-03-29T04:19:54;6.68;;;1.38;;
24421;SDS011;12600;53.326;-6.298;2024-03-29T04:22:44;7.05;;;1.38;;
24421;SDS011;12600;53.326;-6.298;2024-03-29T04:25:31;7.68;;;1.38;;
24421;SDS011;12600;53.326;-6.298;2024-03-29T04:28:19;8.85;;;1.10;;
24421;SDS011;12600;53.326;-6.298;2024-03-29T04:31:07;5.70;;;1.30;;
24421;SDS011;12600;53.326;-6.298;2024-03-29T04:33:55;5.68;;;1.40;;
24421;SDS011;12600;53.326;-6.298;2024-03-29T04:36:44;4.10;;;1.20;;
24421;SDS011;12600;53.326;-6.298;2024-03-29T04:39:33;6.20;;;1.30;;
24421;SDS011;12600;53.326;-6.298;2024-03-29T04:42:22;2.88;;;1.13;;
24421;SDS011;12600;53.326;-6.298;2024-03-29T04:45:10;5.10;;;1.00;;
24421;SDS011;12600;53.326;-6.298;2024-03-29T04:47:59;2.92;;;0.80;;
24421;SDS011;12600;53.326;-6.298;2024-03-29T04:50:47;3.05;;;0.80;;
24421;SDS011;12600;53.326;-6.298;2024-03-29T04:53:35;3.05;;;0.82;;
24421;SDS011;12600;53.326;-6.298;2024-03-29T04:56:26;6.10;;;1.40;;
24421;SDS011;12600;53.326;-6.298;2024-03-29T04:59:14;8.27;;;4.70;;
24421;SDS011;12600;53.326;-6.298;2024-03-29T05:02:04;7.32;;;4.30;;
24421;SDS011;12600;53.326;-6.298;2024-03-29T05:04:52;6.25;;;1.65;;
24421;SDS011;12600;53.326;-6.298;2024-03-29T05:07:43;11.82;;;2.20;;
24421;SDS011;12600;53.326;-6.298;2024-03-29T05:10:31;8.13;;;1.52;;
24421;SDS011;12600;53.326;-6.298;2024-03-29T05:13:22;9.98;;;1.90;;
24421;SDS011;12600;53.326;-6.298;2024-03-29T05:16:10;7.28;;;1.83;;
24421;SDS011;12600;53.326;-6.298;2024-03-29T05:18:58;6.10;;;1.40;;
24421;SDS011;12600;53.326;-6.298;2024-03-29T05:21:46;8.57;;;1.67;;
24421;SDS011;12600;53.326;-6.298;2024-03-29T05:24:35;9.00;;;1.70;;
24421;SDS011;12600;53.326;-6.298;2024-03-29T05:27:23;10.95;;;1.67;;
24421;SDS011;12600;53.326;-6.298;2024-03-29T05:30:13;8.07;;;1.48;;
24421;SDS011;12600;53.326;-6.298;2024-03-29T05:33:01;11.48;;;1.80;;
24421;SDS011;12600;53.326;-6.298;2024-03-29T05:35:50;14.23;;;2.97;;
24421;SDS011;12600;53.326;-6.298;2024-03-29T05:38:38;27.85;;;5.45;;
24421;SDS011;12600;53.326;-6.298;2024-03-29T05:41:27;27.83;;;4.50;;
24421;SDS011;12600;53.326;-6.298;2024-03-29T05:44:17;23.08;;;4.68;;
24421;SDS011;12600;53.326;-6.298;2024-03-29T05:47:06;8.95;;;1.60;;
24421;SDS011;12600;53.326;-6.298;2024-03-29T05:49:55;4.35;;;1.40;;
24421;SDS011;12600;53.326;-6.298;2024-03-29T05:52:43;10.35;;;1.75;;
24421;SDS011;12600;53.326;-6.298;2024-03-29T05:55:31;5.35;;;1.40;;
24421;SDS011;12600;53.326;-6.298;2024-03-29T05:58:20;7.55;;;1.70;;
24421;SDS011;12600;53.326;-6.298;2024-03-29T06:01:09;4.30;;;1.00;;
24421;SDS011;12600;53.326;-6.298;2024-03-29T06:03:59;4.22;;;0.70;;
24421;SDS011;12600;53.326;-6.298;2024-03-29T06:09:39;4.30;;;1.60;;
24421;SDS011;12600;53.326;-6.298;2024-03-29T06:12:27;4.60;;;1.20;;
24421;SDS011;12600;53.326;-6.298;2024-03-29T06:15:16;6.47;;;1.20;;
24421;SDS011;12600;53.326;-6.298;2024-03-29T06:18:21;2.75;;;0.93;;
24421;SDS011;12600;53.326;-6.298;2024-03-29T06:21:11;2.63;;;0.95;;
24421;SDS011;12600;53.326;-6.298;2024-03-29T06:23:59;4.38;;;1.05;;
24421;SDS011;12600;53.326;-6.298;2024-03-29T06:26:48;2.25;;;0.80;;
24421;SDS011;12600;53.326;-6.298;2024-03-29T06:29:37;5.05;;;0.85;;
24421;SDS011;12600;53.326;-6.298;2024-03-29T06:32:26;3.70;;;0.85;;
24421;SDS011;12600;53.326;-6.298;2024-03-29T06:35:14;2.60;;;0.85;;
24421;SDS011;12600;53.326;-6.298;2024-03-29T06:38:04;2.72;;;0.85;;
24421;SDS011;12600;53.326;-6.298;2024-03-29T06:40:52;3.08;;;0.88;;
24421;SDS011;12600;53.326;-6.298;2024-03-29T06:43:41;3.90;;;1.02;;
24421;SDS011;12600;53.326;-6.298;2024-03-29T06:46:30;7.53;;;1.20;;
24421;SDS011;12600;53.326;-6.298;2024-03-29T06:49:20;5.63;;;1.20;;
24421;SDS011;12600;53.326;-6.298;2024-03-29T06:52:09;3.03;;;1.15;;
24421;SDS011;12600;53.326;-6.298;2024-03-29T06:54:59;2.17;;;1.02;;
24421;SDS011;12600;53.326;-6.298;2024-03-29T06:57:47;9.15;;;1.27;;
24421;SDS011;12600;53.326;-6.298;2024-03-29T07:00:35;3.95;;;1.30;;
24421;SDS011;12600;53.326;-6.298;2024-03-29T07:03:24;4.07;;;1.08;;
24421;SDS011;12600;53.326;-6.298;2024-03-29T07:06:12;4.03;;;1.27;;
24421;SDS011;12600;53.326;-6.298;2024-03-29T07:09:00;7.80;;;1.80;;
24421;SDS011;12600;53.326;-6.298;2024-03-29T07:11:51;3.55;;;1.10;;
24421;SDS011;12600;53.326;-6.298;2024-03-29T07:14:41;5.95;;;1.40;;
24421;SDS011;12600;53.326;-6.298;2024-03-29T07:17:29;2.90;;;0.80;;
24421;SDS011;12600;53.326;-6.298;2024-03-29T07:20:18;6.57;;;1.00;;
24421;SDS011;12600;53.326;-6.298;2024-03-29T07:23:06;6.13;;;0.90;;
24421;SDS011;12600;53.326;-6.298;2024-03-29T07:25:58;9.05;;;1.10;;
24421;SDS011;12600;53.326;-6.298;2024-03-29T07:28:50;2.30;;;0.50;;
24421;SDS011;12600;53.326;-6.298;2024-03-29T07:31:38;4.80;;;0.73;;
24421;SDS011;12600;53.326;-6.298;2024-03-29T07:34:27;6.10;;;1.27;;
24421;SDS011;12600;53.326;-6.298;2024-03-29T07:37:15;1.52;;;0.50;;
24421;SDS011;12600;53.326;-6.298;2024-03-29T07:40:04;3.90;;;0.93;;
24421;SDS011;12600;53.326;-6.298;2024-03-29T07:42:55;3.70;;;1.38;;
24421;SDS011;12600;53.326;-6.298;2024-03-29T07:45:45;5.80;;;0.88;;
24421;SDS011;12600;53.326;-6.298;2024-03-29T07:48:34;2.22;;;0.65;;
24421;SDS011;12600;53.326;-6.298;2024-03-29T07:51:23;5.50;;;0.63;;
24421;SDS011;12600;53.326;-6.298;2024-03-29T07:54:12;4.65;;;0.75;;
24421;SDS011;12600;53.326;-6.298;2024-03-29T07:57:00;5.35;;;0.80;;
24421;SDS011;12600;53.326;-6.298;2024-03-29T07:59:50;3.65;;;0.70;;
24421;SDS011;12600;53.326;-6.298;2024-03-29T08:02:40;3.17;;;0.55;;
24421;SDS011;12600;53.326;-6.298;2024-03-29T08:05:28;4.50;;;0.80;;
24421;SDS011;12600;53.326;-6.298;2024-03-29T08:08:17;4.13;;;1.00;;
24421;SDS011;12600;53.326;-6.298;2024-03-29T08:11:05;6.97;;;1.10;;
24421;SDS011;12600;53.326;-6.298;2024-03-29T08:13:56;5.05;;;0.90;;
24421;SDS011;12600;53.326;-6.298;2024-03-29T08:16:44;3.55;;;1.10;;
24421;SDS011;12600;53.326;-6.298;2024-03-29T08:19:34;5.43;;;0.70;;
24421;SDS011;12600;53.326;-6.298;2024-03-29T08:22:23;3.90;;;0.82;;
24421;SDS011;12600;53.326;-6.298;2024-03-29T08:25:11;4.70;;;0.70;;
24421;SDS011;12600;53.326;-6.298;2024-03-29T08:28:00;4.85;;;1.17;;
24421;SDS011;12600;53.326;-6.298;2024-03-29T08:30:57;5.38;;;1.17;;
24421;SDS011;12600;53.326;-6.298;2024-03-29T08:33:46;3.28;;;1.08;;
24421;SDS011;12600;53.326;-6.298;2024-03-29T08:36:37;5.22;;;0.98;;
24421;SDS011;12600;53.326;-6.298;2024-03-29T08:39:25;7.55;;;1.10;;
24421;SDS011;12600;53.326;-6.298;2024-03-29T08:42:12;4.30;;;0.90;;
24421;SDS011;12600;53.326;-6.298;2024-03-29T08:45:03;9.65;;;1.15;;
24421;SDS011;12600;53.326;-6.298;2024-03-29T08:47:54;8.38;;;1.33;;
24421;SDS011;12600;53.326;-6.298;2024-03-29T08:50:42;3.63;;;1.00;;
24421;SDS011;12600;53.326;-6.298;2024-03-29T08:53:32;11.57;;;1.30;;
24421;SDS011;12600;53.326;-6.298;2024-03-29T08:56:20;9.13;;;1.40;;
24421;SDS011;12600;53.326;-6.298;2024-03-29T08:59:08;5.53;;;1.05;;
24421;SDS011;12600;53.326;-6.298;2024-03-29T09:02:03;4.68;;;1.38;;
24421;SDS011;12600;53.326;-6.298;2024-03-29T09:04:53;7.72;;;1.40;;
24421;SDS011;12600;53.326;-6.298;2024-03-29T09:07:42;6.57;;;1.20;;
24421;SDS011;12600;53.326;-6.298;2024-03-29T09:10:31;7.63;;;1.65;;
24421;SDS011;12600;53.326;-6.298;2024-03-29T09:13:20;6.32;;;1.10;;
24421;SDS011;12600;53.326;-6.298;2024-03-29T09:16:08;6.10;;;1.00;;
24421;SDS011;12600;53.326;-6.298;2024-03-29T09:18:57;6.50;;;0.80;;
24421;SDS011;12600;53.326;-6.298;2024-03-29T09:21:45;4.68;;;1.00;;
24421;SDS011;12600;53.326;-6.298;2024-03-29T09:24:34;6.95;;;1.30;;
24421;SDS011;12600;53.326;-6.298;2024-03-29T09:27:24;8.70;;;1.05;;
24421;SDS011;12600;53.326;-6.298;2024-03-29T09:30:14;9.80;;;1.50;;
24421;SDS011;12600;53.326;-6.298;2024-03-29T09:33:05;8.48;;;1.50;;
24421;SDS011;12600;53.326;-6.298;2024-03-29T09:35:55;11.10;;;1.45;;
24421;SDS011;12600;53.326;-6.298;2024-03-29T09:38:44;6.30;;;0.98;;
24421;SDS011;12600;53.326;-6.298;2024-03-29T09:41:33;12.43;;;1.23;;
24421;SDS011;12600;53.326;-6.298;2024-03-29T09:44:25;8.27;;;1.20;;
24421;SDS011;12600;53.326;-6.298;2024-03-29T09:47:18;7.50;;;1.00;;
24421;SDS011;12600;53.326;-6.298;2024-03-29T09:50:08;7.97;;;1.40;;
24421;SDS011;12600;53.326;-6.298;2024-03-29T09:52:58;7.88;;;1.38;;
24421;SDS011;12600;53.326;-6.298;2024-03-29T09:55:47;5.18;;;0.85;;
24421;SDS011;12600;53.326;-6.298;2024-03-29T09:58:37;5.45;;;1.40;;
24421;SDS011;12600;53.326;-6.298;2024-03-29T10:01:27;5.22;;;1.00;;
24421;SDS011;12600;53.326;-6.298;2024-03-29T10:04:15;5.93;;;0.90;;
24421;SDS011;12600;53.326;-6.298;2024-03-29T10:07:05;6.10;;;1.10;;
24421;SDS011;12600;53.326;-6.298;2024-03-29T10:09:54;7.93;;;1.10;;
24421;SDS011;12600;53.326;-6.298;2024-03-29T10:12:45;8.57;;;0.90;;
24421;SDS011;12600;53.326;-6.298;2024-03-29T10:15:33;5.63;;;1.00;;
24421;SDS011;12600;53.326;-6.298;2024-03-29T10:18:26;10.05;;;1.70;;
24421;SDS011;12600;53.326;-6.298;2024-03-29T10:21:16;5.22;;;0.93;;
24421;SDS011;12600;53.326;-6.298;2024-03-29T10:24:12;6.63;;;1.25;;
24421;SDS011;12600;53.326;-6.298;2024-03-29T10:27:01;9.15;;;1.20;;
24421;SDS011;12600;53.326;-6.298;2024-03-29T10:29:51;6.75;;;1.27;;
24421;SDS011;12600;53.326;-6.298;2024-03-29T10:32:40;9.77;;;1.38;;
24421;SDS011;12600;53.326;-6.298;2024-03-29T10:35:30;8.40;;;1.42;;
24421;SDS011;12600;53.326;-6.298;2024-03-29T10:38:18;7.20;;;1.45;;
24421;SDS011;12600;53.326;-6.298;2024-03-29T10:41:06;5.88;;;1.13;;
24421;SDS011;12600;53.326;-6.298;2024-03-29T10:43:56;9.27;;;1.35;;
24421;SDS011;12600;53.326;-6.298;2024-03-29T10:46:47;12.80;;;3.58;;
24421;SDS011;12600;53.326;-6.298;2024-03-29T10:49:37;8.13;;;1.30;;
24421;SDS011;12600;53.326;-6.298;2024-03-29T10:52:29;7.68;;;1.20;;
24421;SDS011;12600;53.326;-6.298;2024-03-29T10:55:18;6.78;;;1.20;;
24421;SDS011;12600;53.326;-6.298;2024-03-29T10:58:09;8.77;;;1.60;;
24421;SDS011;12600;53.326;-6.298;2024-03-29T11:01:00;6.68;;;1.05;;
24421;SDS011;12600;53.326;-6.298;2024-03-29T11:03:53;9.05;;;1.25;;
24421;SDS011;12600;53.326;-6.298;2024-03-29T11:06:46;9.75;;;1.30;;
24421;SDS011;12600;53.326;-6.298;2024-03-29T11:09:38;12.18;;;1.60;;
24421;SDS011;12600;53.326;-6.298;2024-03-29T11:12:28;5.35;;;1.00;;
24421;SDS011;12600;53.326;-6.298;2024-03-29T11:15:23;17.45;;;1.95;;
24421;SDS011;12600;53.326;-6.298;2024-03-29T11:18:17;7.72;;;1.33;;
24421;SDS011;12600;53.326;-6.298;2024-03-29T11:21:06;11.32;;;1.33;;
24421;SDS011;12600;53.326;-6.298;2024-03-29T11:23:57;8.02;;;1.33;;
24421;SDS011;12600;53.326;-6.298;2024-03-29T11:26:48;9.65;;;1.38;;
24421;SDS011;12600;53.326;-6.298;2024-03-29T11:29:37;4.95;;;0.90;;
24421;SDS011;12600;53.326;-6.298;2024-03-29T11:32:34;9.57;;;1.20;;
24421;SDS011;12600;53.326;-6.298;2024-03-29T11:35:24;6.03;;;1.70;;
24421;SDS011;12600;53.326;-6.298;2024-03-29T11:38:19;9.38;;;2.60;;
24421;SDS011;12600;53.326;-6.298;2024-03-29T11:41:10;13.50;;;3.75;;
24421;SDS011;12600;53.326;-6.298;2024-03-29T11:44:01;9.02;;;1.23;;
24421;SDS011;12600;53.326;-6.298;2024-03-29T11:46:49;6.78;;;1.25;;
24421;SDS011;12600;53.326;-6.298;2024-03-29T11:49:38;9.55;;;1.65;;
24421;SDS011;12600;53.326;-6.298;2024-03-29T11:52:26;8.60;;;1.40;;
24421;SDS011;12600;53.326;-6.298;2024-03-29T11:55:14;4.05;;;0.73;;
24421;SDS011;12600;53.326;-6.298;2024-03-29T11:58:04;13.32;;;2.15;;
24421;SDS011;12600;53.326;-6.298;2024-03-29T12:00:54;7.65;;;1.30;;
24421;SDS011;12600;53.326;-6.298;2024-03-29T12:03:44;7.15;;;1.25;;
24421;SDS011;12600;53.326;-6.298;2024-03-29T12:06:33;6.13;;;1.63;;
24421;SDS011;12600;53.326;-6.298;2024-03-29T12:09:21;8.07;;;1.40;;
24421;SDS011;12600;53.326;-6.298;2024-03-29T12:12:10;5.00;;;0.95;;
24421;SDS011;12600;53.326;-6.298;2024-03-29T12:15:03;3.53;;;0.70;;
24421;SDS011;12600;53.326;-6.298;2024-03-29T12:17:55;4.20;;;0.60;;
24421;SDS011;12600;53.326;-6.298;2024-03-29T12:20:47;4.57;;;0.60;;
24421;SDS011;12600;53.326;-6.298;2024-03-29T12:23:36;3.92;;;0.95;;
24421;SDS011;12600;53.326;-6.298;2024-03-29T12:26:27;2.10;;;0.77;;
24421;SDS011;12600;53.326;-6.298;2024-03-29T12:29:17;7.43;;;1.02;;
24421;SDS011;12600;53.326;-6.298;2024-03-29T12:32:06;4.93;;;0.80;;
24421;SDS011;12600;53.326;-6.298;2024-03-29T12:34:57;5.35;;;1.10;;
24421;SDS011;12600;53.326;-6.298;2024-03-29T12:37:57;5.35;;;0.90;;
24421;SDS011;12600;53.326;-6.298;2024-03-29T12:40:47;4.60;;;1.08;;
24421;SDS011;12600;53.326;-6.298;2024-03-29T12:43:36;4.45;;;1.25;;
24421;SDS011;12600;53.326;-6.298;2024-03-29T12:46:25;5.32;;;0.70;;
24421;SDS011;12600;53.326;-6.298;2024-03-29T12:49:14;4.18;;;0.80;;
24421;SDS011;12600;53.326;-6.298;2024-03-29T12:52:06;3.55;;;1.02;;
24421;SDS011;12600;53.326;-6.298;2024-03-29T12:54:54;4.68;;;1.10;;
24421;SDS011;12600;53.326;-6.298;2024-03-29T12:57:43;3.95;;;0.88;;
24421;SDS011;12600;53.326;-6.298;2024-03-29T13:00:31;4.47;;;1.02;;
24421;SDS011;12600;53.326;-6.298;2024-03-29T13:03:19;3.90;;;1.05;;
24421;SDS011;12600;53.326;-6.298;2024-03-29T13:06:08;3.63;;;1.40;;
24421;SDS011;12600;53.326;-6.298;2024-03-29T13:08:57;5.65;;;1.08;;
24421;SDS011;12600;53.326;-6.298;2024-03-29T13:11:46;7.38;;;2.03;;
24421;SDS011;12600;53.326;-6.298;2024-03-29T13:14:34;8.85;;;1.73;;
24421;SDS011;12600;53.326;-6.298;2024-03-29T13:17:23;6.10;;;1.50;;
24421;SDS011;12600;53.326;-6.298;2024-03-29T13:20:11;7.15;;;1.30;;
24421;SDS011;12600;53.326;-6.298;2024-03-29T13:23:01;10.15;;;1.58;;
24421;SDS011;12600;53.326;-6.298;2024-03-29T13:25:51;6.25;;;1.05;;
24421;SDS011;12600;53.326;-6.298;2024-03-29T13:28:42;8.60;;;1.20;;
24421;SDS011;12600;53.326;-6.298;2024-03-29T13:31:31;6.35;;;1.70;;
24421;SDS011;12600;53.326;-6.298;2024-03-29T13:34:19;6.13;;;1.30;;
24421;SDS011;12600;53.326;-6.298;2024-03-29T13:37:08;11.23;;;1.38;;
24421;SDS011;12600;53.326;-6.298;2024-03-29T13:39:56;6.70;;;1.50;;
24421;SDS011;12600;53.326;-6.298;2024-03-29T13:42:46;6.03;;;1.23;;
24421;SDS011;12600;53.326;-6.298;2024-03-29T13:45:35;6.65;;;1.33;;
24421;SDS011;12600;53.326;-6.298;2024-03-29T13:48:23;11.45;;;1.60;;
24421;SDS011;12600;53.326;-6.298;2024-03-29T13:51:12;7.30;;;1.48;;
24421;SDS011;12600;53.326;-6.298;2024-03-29T13:54:01;5.32;;;0.95;;
24421;SDS011;12600;53.326;-6.298;2024-03-29T13:56:49;4.50;;;0.95;;
24421;SDS011;12600;53.326;-6.298;2024-03-29T13:59:39;5.45;;;1.25;;
24421;SDS011;12600;53.326;-6.298;2024-03-29T14:02:29;7.47;;;1.38;;
24421;SDS011;12600;53.326;-6.298;2024-03-29T14:05:18;4.07;;;1.10;;
24421;SDS011;12600;53.326;-6.298;2024-03-29T14:08:06;6.03;;;1.25;;
24421;SDS011;12600;53.326;-6.298;2024-03-29T14:10:55;5.72;;;1.40;;
24421;SDS011;12600;53.326;-6.298;2024-03-29T14:13:43;4.32;;;1.20;;
24421;SDS011;12600;53.326;-6.298;2024-03-29T14:16:36;10.07;;;1.40;;
24421;SDS011;12600;53.326;-6.298;2024-03-29T14:19:25;6.95;;;1.20;;
24421;SDS011;12600;53.326;-6.298;2024-03-29T14:22:14;5.70;;;1.30;;
24421;SDS011;12600;53.326;-6.298;2024-03-29T14:25:05;8.52;;;1.20;;
24421;SDS011;12600;53.326;-6.298;2024-03-29T14:27:56;10.07;;;1.30;;
24421;SDS011;12600;53.326;-6.298;2024-03-29T14:30:45;4.05;;;1.10;;
24421;SDS011;12600;53.326;-6.298;2024-03-29T14:33:35;7.07;;;0.98;;
24421;SDS011;12600;53.326;-6.298;2024-03-29T14:36:24;3.53;;;0.60;;
24421;SDS011;12600;53.326;-6.298;2024-03-29T14:39:12;4.65;;;0.73;;
24421;SDS011;12600;53.326;-6.298;2024-03-29T14:42:01;2.05;;;0.60;;
24421;SDS011;12600;53.326;-6.298;2024-03-29T14:44:52;2.33;;;0.80;;
24421;SDS011;12600;53.326;-6.298;2024-03-29T14:47:40;3.42;;;1.00;;
24421;SDS011;12600;53.326;-6.298;2024-03-29T14:50:30;6.90;;;0.90;;
24421;SDS011;12600;53.326;-6.298;2024-03-29T14:53:18;9.45;;;1.08;;
24421;SDS011;12600;53.326;-6.298;2024-03-29T14:56:07;2.92;;;0.88;;
24421;SDS011;12600;53.326;-6.298;2024-03-29T14:58:55;2.65;;;0.95;;
24421;SDS011;12600;53.326;-6.298;2024-03-29T15:01:44;2.33;;;0.70;;
24421;SDS011;12600;53.326;-6.298;2024-03-29T15:04:32;4.72;;;0.63;;
24421;SDS011;12600;53.326;-6.298;2024-03-29T15:07:22;4.82;;;1.05;;
24421;SDS011;12600;53.326;-6.298;2024-03-29T15:10:11;2.28;;;0.65;;
24421;SDS011;12600;53.326;-6.298;2024-03-29T15:13:00;3.17;;;0.77;;
24421;SDS011;12600;53.326;-6.298;2024-03-29T15:15:53;2.10;;;0.60;;
24421;SDS011;12600;53.326;-6.298;2024-03-29T15:18:42;4.70;;;1.10;;
24421;SDS011;12600;53.326;-6.298;2024-03-29T15:21:32;3.95;;;0.80;;
24421;SDS011;12600;53.326;-6.298;2024-03-29T15:24:23;3.70;;;0.80;;
24421;SDS011;12600;53.326;-6.298;2024-03-29T15:27:12;5.13;;;1.00;;
24421;SDS011;12600;53.326;-6.298;2024-03-29T15:30:13;4.15;;;0.70;;
24421;SDS011;12600;53.326;-6.298;2024-03-29T15:33:01;4.80;;;0.85;;
24421;SDS011;12600;53.326;-6.298;2024-03-29T15:35:49;3.85;;;1.20;;
24421;SDS011;12600;53.326;-6.298;2024-03-29T15:38:38;3.75;;;1.20;;
24421;SDS011;12600;53.326;-6.298;2024-03-29T15:41:28;3.63;;;0.93;;
24421;SDS011;12600;53.326;-6.298;2024-03-29T15:44:17;4.20;;;1.35;;
24421;SDS011;12600;53.326;-6.298;2024-03-29T15:47:06;16.70;;;9.15;;
24421;SDS011;12600;53.326;-6.298;2024-03-29T15:49:55;4.05;;;1.00;;
24421;SDS011;12600;53.326;-6.298;2024-03-29T15:52:43;5.22;;;1.00;;
24421;SDS011;12600;53.326;-6.298;2024-03-29T15:55:32;2.55;;;0.80;;
24421;SDS011;12600;53.326;-6.298;2024-03-29T15:58:22;2.80;;;0.60;;
24421;SDS011;12600;53.326;-6.298;2024-03-29T16:01:10;5.10;;;0.73;;
24421;SDS011;12600;53.326;-6.298;2024-03-29T16:03:58;5.15;;;1.20;;
24421;SDS011;12600;53.326;-6.298;2024-03-29T16:06:47;2.40;;;0.50;;
24421;SDS011;12600;53.326;-6.298;2024-03-29T16:09:35;2.70;;;0.63;;
24421;SDS011;12600;53.326;-6.298;2024-03-29T16:12:24;2.88;;;0.57;;
24421;SDS011;12600;53.326;-6.298;2024-03-29T16:15:14;3.15;;;0.80;;
24421;SDS011;12600;53.326;-6.298;2024-03-29T16:18:02;5.38;;;0.80;;
24421;SDS011;12600;53.326;-6.298;2024-03-29T16:20:51;3.03;;;0.68;;
24421;SDS011;12600;53.326;-6.298;2024-03-29T16:23:39;4.25;;;0.88;;
24421;SDS011;12600;53.326;-6.298;2024-03-29T16:26:27;3.08;;;0.95;;
24421;SDS011;12600;53.326;-6.298;2024-03-29T16:29:15;3.00;;;0.88;;
24421;SDS011;12600;53.326;-6.298;2024-03-29T16:32:06;4.03;;;1.13;;
24421;SDS011;12600;53.326;-6.298;2024-03-29T16:34:55;2.08;;;0.85;;
24421;SDS011;12600;53.326;-6.298;2024-03-29T16:37:44;3.50;;;1.10;;
24421;SDS011;12600;53.326;-6.298;2024-03-29T16:40:31;1.58;;;0.70;;
24421;SDS011;12600;53.326;-6.298;2024-03-29T16:43:21;3.13;;;1.02;;
24421;SDS011;12600;53.326;-6.298;2024-03-29T16:46:10;2.38;;;0.70;;